CheckWX is a tool to help pilots better visualize weather data.  It is not intended as a substitute for an official pre-flight weather briefing.

19:06:12 UTC

LFRD TAF
Dinard-Pleurtuit-Saint-Malo Airport
Dinard/Pleurtuit/Saint-Malo, France
TAF LFRD 231700Z 2318/2418 VRB03KT CAVOK BECMG 2320/2322 3000 BR TEMPO 2322/2409 0500 BCFG PROB40 TEMPO 2400/2409 0300 FG VV/// BECMG 2409/2411 8000 NSW PROB30 TEMPO 2409/2412 3000 BR BKN003

Feb-23@
18:00 UTC

Feb-23 @ 18:00 UTC

Feb-23@
20:00 UTC

Feb-23 @ 20:00 UTC

TAF LFRD 231700Z 2318/2418 VRB03KT CAVOK
Wind
  • Variable at 3 KTS
Conditions
No significant weather
Cloud Levels
  • No significant clouds

Feb-23@
20:00 UTC

Feb-23 @ 20:00 UTC

Feb-24@
09:00 UTC

Feb-24 @ 09:00 UTC

BECMG 2320/2322 3000 BR

Becoming

Becoming Conditions expected by Sat, Feb 23, 2019 @ 22:00 UTC

Wind
  • Variable at 3 KTS
Conditions
Mist
Cloud Levels
  • No significant clouds

Feb-23@
22:00 UTC

Feb-23 @ 22:00 UTC

Feb-24@
09:00 UTC

Feb-24 @ 09:00 UTC

TEMPO 2322/2409 0500 BCFG

Temporary

Temporary Changes expected for less than half the time period

Conditions
Patches of Fog

Feb-24@
00:00 UTC

Feb-24 @ 00:00 UTC

Feb-24@
09:00 UTC

Feb-24 @ 09:00 UTC

PROB40 TEMPO 2400/2409 0300 FG VV///

Temporary - 40% Likelihood

Temporary - 40% Likelihood during this time.

Conditions
Fog

Feb-24@
09:00 UTC

Feb-24 @ 09:00 UTC

Feb-24@
12:00 UTC

Feb-24 @ 12:00 UTC

PROB30 TEMPO 2409/2412 3000 BR BKN003

Temporary - 30% Likelihood

Temporary - 30% Likelihood during this time.

Conditions
Mist
Cloud Levels
  • Broken at 300' AGL

Feb-24@
09:00 UTC

Feb-24 @ 09:00 UTC

Feb-24@
18:00 UTC

Feb-24 @ 18:00 UTC

BECMG 2409/2411 8000 NSW

Becoming

Becoming Conditions expected by Sun, Feb 24, 2019 @ 11:00 UTC

Wind
  • Variable at 3 KTS
Conditions
No significant weather
Cloud Levels
  • No significant clouds